sensor_id;sensor_type;location;lat;lon;timestamp;P1;durP1;ratioP1;P2;durP2;ratioP2
7939;SDS011;4015;48.888;9.226;2023-04-10T00:02:11;12.63;;;10.20;;
7939;SDS011;4015;48.888;9.226;2023-04-10T00:04:37;11.37;;;9.13;;
7939;SDS011;4015;48.888;9.226;2023-04-10T00:07:02;9.70;;;8.60;;
7939;SDS011;4015;48.888;9.226;2023-04-10T00:09:27;10.77;;;8.63;;
7939;SDS011;4015;48.888;9.226;2023-04-10T00:11:54;11.33;;;9.03;;
7939;SDS011;4015;48.888;9.226;2023-04-10T00:14:20;11.43;;;9.70;;
7939;SDS011;4015;48.888;9.226;2023-04-10T00:16:49;11.50;;;9.53;;
7939;SDS011;4015;48.888;9.226;2023-04-10T00:19:15;10.43;;;9.27;;
7939;SDS011;4015;48.888;9.226;2023-04-10T00:21:41;10.60;;;9.47;;
7939;SDS011;4015;48.888;9.226;2023-04-10T00:24:06;12.57;;;9.87;;
7939;SDS011;4015;48.888;9.226;2023-04-10T00:26:32;11.13;;;8.83;;
7939;SDS011;4015;48.888;9.226;2023-04-10T00:28:57;10.47;;;9.27;;
7939;SDS011;4015;48.888;9.226;2023-04-10T00:31:23;13.67;;;10.73;;
7939;SDS011;4015;48.888;9.226;2023-04-10T00:33:48;11.30;;;9.23;;
7939;SDS011;4015;48.888;9.226;2023-04-10T00:36:13;12.53;;;10.03;;
7939;SDS011;4015;48.888;9.226;2023-04-10T00:38:39;11.17;;;9.27;;
7939;SDS011;4015;48.888;9.226;2023-04-10T00:41:05;10.47;;;8.87;;
7939;SDS011;4015;48.888;9.226;2023-04-10T00:43:31;11.57;;;9.60;;
7939;SDS011;4015;48.888;9.226;2023-04-10T00:45:56;11.80;;;10.17;;
7939;SDS011;4015;48.888;9.226;2023-04-10T00:48:21;15.80;;;10.17;;
7939;SDS011;4015;48.888;9.226;2023-04-10T00:50:47;11.20;;;9.67;;
7939;SDS011;4015;48.888;9.226;2023-04-10T00:53:12;10.63;;;9.17;;
7939;SDS011;4015;48.888;9.226;2023-04-10T00:55:38;11.47;;;9.20;;
7939;SDS011;4015;48.888;9.226;2023-04-10T00:58:03;11.27;;;9.77;;
7939;SDS011;4015;48.888;9.226;2023-04-10T01:00:29;11.93;;;9.23;;
7939;SDS011;4015;48.888;9.226;2023-04-10T01:02:54;11.43;;;8.93;;
7939;SDS011;4015;48.888;9.226;2023-04-10T01:05:20;10.67;;;9.00;;
7939;SDS011;4015;48.888;9.226;2023-04-10T01:07:54;13.67;;;10.67;;
7939;SDS011;4015;48.888;9.226;2023-04-10T01:10:35;10.83;;;8.97;;
7939;SDS011;4015;48.888;9.226;2023-04-10T01:15:57;12.03;;;10.63;;
7939;SDS011;4015;48.888;9.226;2023-04-10T01:18:25;11.50;;;9.67;;
7939;SDS011;4015;48.888;9.226;2023-04-10T01:20:57;11.87;;;9.10;;
7939;SDS011;4015;48.888;9.226;2023-04-10T01:26:02;12.27;;;10.37;;
7939;SDS011;4015;48.888;9.226;2023-04-10T01:31:16;12.60;;;10.07;;
7939;SDS011;4015;48.888;9.226;2023-04-10T01:33:47;12.27;;;9.80;;
7939;SDS011;4015;48.888;9.226;2023-04-10T01:36:26;12.17;;;10.47;;
7939;SDS011;4015;48.888;9.226;2023-04-10T01:38:55;11.50;;;9.10;;
7939;SDS011;4015;48.888;9.226;2023-04-10T01:41:22;10.43;;;9.00;;
7939;SDS011;4015;48.888;9.226;2023-04-10T01:43:49;10.27;;;8.83;;
7939;SDS011;4015;48.888;9.226;2023-04-10T01:46:20;11.47;;;9.27;;
7939;SDS011;4015;48.888;9.226;2023-04-10T01:48:46;11.60;;;9.87;;
7939;SDS011;4015;48.888;9.226;2023-04-10T01:51:13;11.83;;;8.93;;
7939;SDS011;4015;48.888;9.226;2023-04-10T01:53:40;12.40;;;9.00;;
7939;SDS011;4015;48.888;9.226;2023-04-10T01:56:07;10.37;;;9.23;;
7939;SDS011;4015;48.888;9.226;2023-04-10T01:58:33;11.63;;;8.97;;
7939;SDS011;4015;48.888;9.226;2023-04-10T02:00:59;12.43;;;10.03;;
7939;SDS011;4015;48.888;9.226;2023-04-10T02:03:25;11.13;;;9.13;;
7939;SDS011;4015;48.888;9.226;2023-04-10T02:05:53;11.13;;;9.53;;
7939;SDS011;4015;48.888;9.226;2023-04-10T02:08:36;14.77;;;9.73;;
7939;SDS011;4015;48.888;9.226;2023-04-10T02:11:10;10.73;;;9.50;;
7939;SDS011;4015;48.888;9.226;2023-04-10T02:13:39;11.00;;;9.47;;
7939;SDS011;4015;48.888;9.226;2023-04-10T02:16:05;11.63;;;9.23;;
7939;SDS011;4015;48.888;9.226;2023-04-10T02:18:32;10.47;;;9.13;;
7939;SDS011;4015;48.888;9.226;2023-04-10T02:20:59;11.57;;;9.63;;
7939;SDS011;4015;48.888;9.226;2023-04-10T02:23:26;11.77;;;9.53;;
7939;SDS011;4015;48.888;9.226;2023-04-10T02:25:52;12.77;;;10.13;;
7939;SDS011;4015;48.888;9.226;2023-04-10T02:28:17;11.17;;;9.07;;
7939;SDS011;4015;48.888;9.226;2023-04-10T02:30:42;11.10;;;8.87;;
7939;SDS011;4015;48.888;9.226;2023-04-10T02:33:08;10.23;;;9.07;;
7939;SDS011;4015;48.888;9.226;2023-04-10T02:35:33;10.07;;;9.07;;
7939;SDS011;4015;48.888;9.226;2023-04-10T02:37:58;13.03;;;9.50;;
7939;SDS011;4015;48.888;9.226;2023-04-10T02:40:24;10.53;;;9.43;;
7939;SDS011;4015;48.888;9.226;2023-04-10T02:42:49;11.37;;;9.93;;
7939;SDS011;4015;48.888;9.226;2023-04-10T02:45:15;12.17;;;9.37;;
7939;SDS011;4015;48.888;9.226;2023-04-10T02:47:40;11.50;;;9.27;;
7939;SDS011;4015;48.888;9.226;2023-04-10T02:50:06;12.67;;;9.27;;
7939;SDS011;4015;48.888;9.226;2023-04-10T02:52:31;13.23;;;9.60;;
7939;SDS011;4015;48.888;9.226;2023-04-10T02:54:57;10.63;;;9.27;;
7939;SDS011;4015;48.888;9.226;2023-04-10T02:57:22;11.57;;;9.63;;
7939;SDS011;4015;48.888;9.226;2023-04-10T02:59:50;11.13;;;9.33;;
7939;SDS011;4015;48.888;9.226;2023-04-10T03:02:16;11.90;;;9.37;;
7939;SDS011;4015;48.888;9.226;2023-04-10T03:04:41;12.37;;;10.17;;
7939;SDS011;4015;48.888;9.226;2023-04-10T03:07:07;10.67;;;9.57;;
7939;SDS011;4015;48.888;9.226;2023-04-10T03:09:32;11.93;;;9.77;;
7939;SDS011;4015;48.888;9.226;2023-04-10T03:11:58;12.50;;;9.97;;
7939;SDS011;4015;48.888;9.226;2023-04-10T03:14:23;10.23;;;9.10;;
7939;SDS011;4015;48.888;9.226;2023-04-10T03:16:48;12.20;;;10.30;;
7939;SDS011;4015;48.888;9.226;2023-04-10T03:19:14;11.43;;;9.17;;
7939;SDS011;4015;48.888;9.226;2023-04-10T03:21:40;12.60;;;10.20;;
7939;SDS011;4015;48.888;9.226;2023-04-10T03:24:06;11.43;;;9.57;;
7939;SDS011;4015;48.888;9.226;2023-04-10T03:26:31;11.70;;;9.83;;
7939;SDS011;4015;48.888;9.226;2023-04-10T03:28:56;12.07;;;9.87;;
7939;SDS011;4015;48.888;9.226;2023-04-10T03:31:22;10.67;;;9.33;;
7939;SDS011;4015;48.888;9.226;2023-04-10T03:33:47;14.93;;;11.90;;
7939;SDS011;4015;48.888;9.226;2023-04-10T03:36:12;13.10;;;9.67;;
7939;SDS011;4015;48.888;9.226;2023-04-10T03:38:38;12.37;;;10.27;;
7939;SDS011;4015;48.888;9.226;2023-04-10T03:41:03;12.30;;;9.33;;
7939;SDS011;4015;48.888;9.226;2023-04-10T03:43:29;11.00;;;8.93;;
7939;SDS011;4015;48.888;9.226;2023-04-10T03:45:55;12.27;;;10.07;;
7939;SDS011;4015;48.888;9.226;2023-04-10T03:48:20;11.73;;;10.30;;
7939;SDS011;4015;48.888;9.226;2023-04-10T03:50:45;12.77;;;10.30;;
7939;SDS011;4015;48.888;9.226;2023-04-10T03:53:11;10.23;;;9.07;;
7939;SDS011;4015;48.888;9.226;2023-04-10T03:55:36;11.53;;;9.73;;
7939;SDS011;4015;48.888;9.226;2023-04-10T03:58:02;12.43;;;9.50;;
7939;SDS011;4015;48.888;9.226;2023-04-10T04:00:28;12.47;;;9.83;;
7939;SDS011;4015;48.888;9.226;2023-04-10T04:02:53;12.37;;;9.67;;
7939;SDS011;4015;48.888;9.226;2023-04-10T04:05:19;13.43;;;9.80;;
7939;SDS011;4015;48.888;9.226;2023-04-10T04:07:44;11.27;;;8.87;;
7939;SDS011;4015;48.888;9.226;2023-04-10T04:10:10;12.80;;;9.50;;
7939;SDS011;4015;48.888;9.226;2023-04-10T04:12:35;14.00;;;9.63;;
7939;SDS011;4015;48.888;9.226;2023-04-10T04:15:01;11.63;;;9.43;;
7939;SDS011;4015;48.888;9.226;2023-04-10T04:17:26;9.90;;;8.90;;
7939;SDS011;4015;48.888;9.226;2023-04-10T04:19:51;10.97;;;9.00;;
7939;SDS011;4015;48.888;9.226;2023-04-10T04:22:17;10.57;;;9.37;;
7939;SDS011;4015;48.888;9.226;2023-04-10T04:24:42;12.80;;;9.07;;
7939;SDS011;4015;48.888;9.226;2023-04-10T04:27:08;13.23;;;9.33;;
7939;SDS011;4015;48.888;9.226;2023-04-10T04:29:33;11.47;;;8.87;;
7939;SDS011;4015;48.888;9.226;2023-04-10T04:31:58;11.63;;;9.20;;
7939;SDS011;4015;48.888;9.226;2023-04-10T04:34:24;10.70;;;8.83;;
7939;SDS011;4015;48.888;9.226;2023-04-10T04:36:49;10.53;;;9.13;;
7939;SDS011;4015;48.888;9.226;2023-04-10T04:39:15;13.13;;;9.27;;
7939;SDS011;4015;48.888;9.226;2023-04-10T04:41:40;12.17;;;9.27;;
7939;SDS011;4015;48.888;9.226;2023-04-10T04:44:05;10.30;;;9.20;;
7939;SDS011;4015;48.888;9.226;2023-04-10T04:46:31;10.77;;;9.07;;
7939;SDS011;4015;48.888;9.226;2023-04-10T04:48:56;10.67;;;9.40;;
7939;SDS011;4015;48.888;9.226;2023-04-10T04:51:22;12.87;;;10.30;;
7939;SDS011;4015;48.888;9.226;2023-04-10T04:53:47;11.47;;;8.43;;
7939;SDS011;4015;48.888;9.226;2023-04-10T04:56:12;11.47;;;8.90;;
7939;SDS011;4015;48.888;9.226;2023-04-10T04:58:38;12.80;;;10.17;;
7939;SDS011;4015;48.888;9.226;2023-04-10T05:01:03;9.63;;;8.60;;
7939;SDS011;4015;48.888;9.226;2023-04-10T05:03:29;10.77;;;9.43;;
7939;SDS011;4015;48.888;9.226;2023-04-10T05:05:55;10.77;;;9.07;;
7939;SDS011;4015;48.888;9.226;2023-04-10T05:08:20;12.60;;;9.77;;
7939;SDS011;4015;48.888;9.226;2023-04-10T05:10:46;11.07;;;9.10;;
7939;SDS011;4015;48.888;9.226;2023-04-10T05:13:11;11.50;;;9.60;;
7939;SDS011;4015;48.888;9.226;2023-04-10T05:15:37;10.97;;;9.13;;
7939;SDS011;4015;48.888;9.226;2023-04-10T05:18:03;11.60;;;9.73;;
7939;SDS011;4015;48.888;9.226;2023-04-10T05:20:28;11.47;;;9.97;;
7939;SDS011;4015;48.888;9.226;2023-04-10T05:22:54;11.13;;;9.43;;
7939;SDS011;4015;48.888;9.226;2023-04-10T05:25:19;10.90;;;8.87;;
7939;SDS011;4015;48.888;9.226;2023-04-10T05:27:44;10.43;;;9.13;;
7939;SDS011;4015;48.888;9.226;2023-04-10T05:30:10;12.33;;;9.57;;
7939;SDS011;4015;48.888;9.226;2023-04-10T05:32:36;12.03;;;9.43;;
7939;SDS011;4015;48.888;9.226;2023-04-10T05:35:01;10.53;;;8.83;;
7939;SDS011;4015;48.888;9.226;2023-04-10T05:37:26;11.37;;;8.40;;
7939;SDS011;4015;48.888;9.226;2023-04-10T05:39:52;11.33;;;9.03;;
7939;SDS011;4015;48.888;9.226;2023-04-10T05:42:17;10.40;;;8.93;;
7939;SDS011;4015;48.888;9.226;2023-04-10T05:44:43;11.47;;;9.27;;
7939;SDS011;4015;48.888;9.226;2023-04-10T05:47:09;10.87;;;8.80;;
7939;SDS011;4015;48.888;9.226;2023-04-10T05:49:34;10.77;;;9.10;;
7939;SDS011;4015;48.888;9.226;2023-04-10T05:52:00;10.97;;;8.43;;
7939;SDS011;4015;48.888;9.226;2023-04-10T05:54:25;11.43;;;9.03;;
7939;SDS011;4015;48.888;9.226;2023-04-10T05:56:50;10.27;;;8.20;;
7939;SDS011;4015;48.888;9.226;2023-04-10T05:59:16;11.53;;;8.43;;
7939;SDS011;4015;48.888;9.226;2023-04-10T06:01:42;10.60;;;8.83;;
7939;SDS011;4015;48.888;9.226;2023-04-10T06:04:08;11.77;;;8.50;;
7939;SDS011;4015;48.888;9.226;2023-04-10T06:06:33;10.27;;;8.53;;
7939;SDS011;4015;48.888;9.226;2023-04-10T06:08:59;9.70;;;8.60;;
7939;SDS011;4015;48.888;9.226;2023-04-10T06:11:24;9.17;;;8.20;;
7939;SDS011;4015;48.888;9.226;2023-04-10T06:13:49;9.63;;;8.40;;
7939;SDS011;4015;48.888;9.226;2023-04-10T06:16:15;9.57;;;8.00;;
7939;SDS011;4015;48.888;9.226;2023-04-10T06:18:40;9.83;;;8.27;;
7939;SDS011;4015;48.888;9.226;2023-04-10T06:21:06;10.07;;;7.83;;
7939;SDS011;4015;48.888;9.226;2023-04-10T06:23:31;10.50;;;8.63;;
7939;SDS011;4015;48.888;9.226;2023-04-10T06:25:57;10.63;;;9.53;;
7939;SDS011;4015;48.888;9.226;2023-04-10T06:28:22;9.57;;;8.57;;
7939;SDS011;4015;48.888;9.226;2023-04-10T06:30:47;10.97;;;8.93;;
7939;SDS011;4015;48.888;9.226;2023-04-10T06:33:13;9.13;;;8.20;;
7939;SDS011;4015;48.888;9.226;2023-04-10T06:35:38;8.13;;;7.30;;
7939;SDS011;4015;48.888;9.226;2023-04-10T06:38:04;10.07;;;8.10;;
7939;SDS011;4015;48.888;9.226;2023-04-10T06:40:29;8.53;;;7.67;;
7939;SDS011;4015;48.888;9.226;2023-04-10T06:42:55;9.83;;;7.17;;
7939;SDS011;4015;48.888;9.226;2023-04-10T06:45:21;9.30;;;7.03;;
7939;SDS011;4015;48.888;9.226;2023-04-10T06:47:47;7.93;;;6.97;;
7939;SDS011;4015;48.888;9.226;2023-04-10T06:50:12;7.13;;;6.40;;
7939;SDS011;4015;48.888;9.226;2023-04-10T06:52:37;8.00;;;7.20;;
7939;SDS011;4015;48.888;9.226;2023-04-10T06:55:03;7.03;;;6.30;;
7939;SDS011;4015;48.888;9.226;2023-04-10T06:57:29;6.47;;;5.87;;
7939;SDS011;4015;48.888;9.226;2023-04-10T06:59:54;7.13;;;6.47;;
7939;SDS011;4015;48.888;9.226;2023-04-10T07:02:19;7.17;;;6.47;;
7939;SDS011;4015;48.888;9.226;2023-04-10T07:04:45;7.27;;;6.57;;
7939;SDS011;4015;48.888;9.226;2023-04-10T07:07:10;6.47;;;5.88;;
7939;SDS011;4015;48.888;9.226;2023-04-10T07:09:37;6.85;;;6.15;;
7939;SDS011;4015;48.888;9.226;2023-04-10T07:12:03;7.30;;;6.60;;
7939;SDS011;4015;48.888;9.226;2023-04-10T07:14:28;6.95;;;6.25;;
7939;SDS011;4015;48.888;9.226;2023-04-10T07:16:53;7.18;;;6.47;;
7939;SDS011;4015;48.888;9.226;2023-04-10T07:19:19;6.70;;;6.10;;
7939;SDS011;4015;48.888;9.226;2023-04-10T07:21:45;7.20;;;6.50;;
7939;SDS011;4015;48.888;9.226;2023-04-10T07:24:14;6.60;;;6.00;;
7939;SDS011;4015;48.888;9.226;2023-04-10T07:26:39;5.90;;;5.40;;
7939;SDS011;4015;48.888;9.226;2023-04-10T07:29:05;5.90;;;5.40;;
7939;SDS011;4015;48.888;9.226;2023-04-10T07:31:30;5.65;;;5.15;;
7939;SDS011;4015;48.888;9.226;2023-04-10T07:33:55;5.88;;;5.28;;
7939;SDS011;4015;48.888;9.226;2023-04-10T07:36:21;5.05;;;4.65;;
7939;SDS011;4015;48.888;9.226;2023-04-10T07:38:46;6.10;;;5.50;;
7939;SDS011;4015;48.888;9.226;2023-04-10T07:41:11;5.97;;;5.38;;
7939;SDS011;4015;48.888;9.226;2023-04-10T07:43:38;5.53;;;5.03;;
7939;SDS011;4015;48.888;9.226;2023-04-10T07:46:03;6.03;;;5.00;;
7939;SDS011;4015;48.888;9.226;2023-04-10T07:48:29;5.13;;;4.63;;
7939;SDS011;4015;48.888;9.226;2023-04-10T07:50:54;5.18;;;4.68;;
7939;SDS011;4015;48.888;9.226;2023-04-10T07:53:20;4.80;;;4.40;;
7939;SDS011;4015;48.888;9.226;2023-04-10T07:55:45;5.63;;;4.75;;
7939;SDS011;4015;48.888;9.226;2023-04-10T07:58:13;4.63;;;4.22;;
7939;SDS011;4015;48.888;9.226;2023-04-10T08:00:38;4.88;;;4.47;;
7939;SDS011;4015;48.888;9.226;2023-04-10T08:03:04;4.70;;;4.30;;
7939;SDS011;4015;48.888;9.226;2023-04-10T08:05:30;5.32;;;4.80;;
7939;SDS011;4015;48.888;9.226;2023-04-10T08:07:55;6.00;;;4.53;;
7939;SDS011;4015;48.888;9.226;2023-04-10T08:10:21;5.20;;;4.70;;
7939;SDS011;4015;48.888;9.226;2023-04-10T08:12:46;4.60;;;4.20;;
7939;SDS011;4015;48.888;9.226;2023-04-10T08:15:12;5.03;;;4.63;;
7939;SDS011;4015;48.888;9.226;2023-04-10T08:17:37;5.35;;;4.85;;
7939;SDS011;4015;48.888;9.226;2023-04-10T08:20:03;4.57;;;4.18;;
7939;SDS011;4015;48.888;9.226;2023-04-10T08:22:29;4.90;;;4.50;;
7939;SDS011;4015;48.888;9.226;2023-04-10T08:24:54;5.03;;;4.63;;
7939;SDS011;4015;48.888;9.226;2023-04-10T08:27:20;4.35;;;4.05;;
7939;SDS011;4015;48.888;9.226;2023-04-10T08:29:45;5.15;;;4.75;;
7939;SDS011;4015;48.888;9.226;2023-04-10T08:32:11;5.22;;;4.82;;
7939;SDS011;4015;48.888;9.226;2023-04-10T08:34:36;4.43;;;4.03;;
7939;SDS011;4015;48.888;9.226;2023-04-10T08:37:05;4.32;;;4.03;;
7939;SDS011;4015;48.888;9.226;2023-04-10T08:39:33;4.30;;;3.90;;
7939;SDS011;4015;48.888;9.226;2023-04-10T08:41:59;4.97;;;4.13;;
7939;SDS011;4015;48.888;9.226;2023-04-10T08:44:24;4.47;;;4.07;;
7939;SDS011;4015;48.888;9.226;2023-04-10T08:46:50;4.53;;;4.13;;
7939;SDS011;4015;48.888;9.226;2023-04-10T08:49:17;4.05;;;3.75;;
7939;SDS011;4015;48.888;9.226;2023-04-10T08:51:54;4.30;;;3.90;;
7939;SDS011;4015;48.888;9.226;2023-04-10T08:54:31;4.60;;;4.07;;
7939;SDS011;4015;48.888;9.226;2023-04-10T08:56:58;8.98;;;4.15;;
7939;SDS011;4015;48.888;9.226;2023-04-10T08:59:26;3.85;;;3.55;;
7939;SDS011;4015;48.888;9.226;2023-04-10T09:01:53;4.68;;;4.28;;
7939;SDS011;4015;48.888;9.226;2023-04-10T09:04:18;4.28;;;3.95;;
7939;SDS011;4015;48.888;9.226;2023-04-10T09:06:44;4.13;;;3.72;;
7939;SDS011;4015;48.888;9.226;2023-04-10T09:09:10;4.05;;;3.70;;
7939;SDS011;4015;48.888;9.226;2023-04-10T09:11:57;3.70;;;3.40;;
7939;SDS011;4015;48.888;9.226;2023-04-10T09:16:51;4.00;;;3.70;;
7939;SDS011;4015;48.888;9.226;2023-04-10T09:19:35;3.75;;;3.45;;
7939;SDS011;4015;48.888;9.226;2023-04-10T09:22:01;3.13;;;2.83;;
7939;SDS011;4015;48.888;9.226;2023-04-10T09:24:27;3.65;;;3.35;;
7939;SDS011;4015;48.888;9.226;2023-04-10T09:26:52;3.17;;;2.88;;
7939;SDS011;4015;48.888;9.226;2023-04-10T09:29:18;3.55;;;3.25;;
7939;SDS011;4015;48.888;9.226;2023-04-10T09:31:44;3.47;;;3.17;;
7939;SDS011;4015;48.888;9.226;2023-04-10T09:36:54;3.30;;;3.00;;
7939;SDS011;4015;48.888;9.226;2023-04-10T09:39:29;3.83;;;3.53;;
7939;SDS011;4015;48.888;9.226;2023-04-10T09:41:57;3.60;;;3.30;;
7939;SDS011;4015;48.888;9.226;2023-04-10T09:44:30;2.88;;;2.67;;
7939;SDS011;4015;48.888;9.226;2023-04-10T09:47:19;3.20;;;2.90;;
7939;SDS011;4015;48.888;9.226;2023-04-10T09:49:46;3.05;;;2.85;;
7939;SDS011;4015;48.888;9.226;2023-04-10T09:52:32;3.15;;;2.90;;
7939;SDS011;4015;48.888;9.226;2023-04-10T09:55:00;3.30;;;3.00;;
7939;SDS011;4015;48.888;9.226;2023-04-10T09:57:29;3.25;;;2.95;;
7939;SDS011;4015;48.888;9.226;2023-04-10T09:59:56;2.72;;;2.53;;
7939;SDS011;4015;48.888;9.226;2023-04-10T10:02:25;2.60;;;2.40;;
7939;SDS011;4015;48.888;9.226;2023-04-10T10:04:53;2.85;;;2.65;;
7939;SDS011;4015;48.888;9.226;2023-04-10T10:07:20;2.70;;;2.50;;
7939;SDS011;4015;48.888;9.226;2023-04-10T10:09:47;3.72;;;2.53;;
7939;SDS011;4015;48.888;9.226;2023-04-10T10:12:15;3.00;;;2.80;;
7939;SDS011;4015;48.888;9.226;2023-04-10T10:15:15;3.15;;;2.85;;
7939;SDS011;4015;48.888;9.226;2023-04-10T10:17:40;2.95;;;2.75;;
7939;SDS011;4015;48.888;9.226;2023-04-10T10:20:15;2.85;;;2.65;;
7939;SDS011;4015;48.888;9.226;2023-04-10T10:22:42;2.67;;;2.47;;
7939;SDS011;4015;48.888;9.226;2023-04-10T10:25:09;2.60;;;2.40;;
7939;SDS011;4015;48.888;9.226;2023-04-10T10:27:38;2.70;;;2.50;;
7939;SDS011;4015;48.888;9.226;2023-04-10T10:30:06;2.80;;;2.60;;
7939;SDS011;4015;48.888;9.226;2023-04-10T10:32:33;2.60;;;2.40;;
7939;SDS011;4015;48.888;9.226;2023-04-10T10:34:59;2.25;;;2.05;;
7939;SDS011;4015;48.888;9.226;2023-04-10T10:37:26;2.38;;;2.17;;
7939;SDS011;4015;48.888;9.226;2023-04-10T10:40:05;2.33;;;2.13;;
7939;SDS011;4015;48.888;9.226;2023-04-10T10:42:39;2.35;;;2.15;;
7939;SDS011;4015;48.888;9.226;2023-04-10T10:45:14;2.30;;;2.10;;
7939;SDS011;4015;48.888;9.226;2023-04-10T10:47:49;2.10;;;1.90;;
7939;SDS011;4015;48.888;9.226;2023-04-10T10:50:16;3.28;;;2.15;;
7939;SDS011;4015;48.888;9.226;2023-04-10T10:52:45;2.17;;;1.98;;
7939;SDS011;4015;48.888;9.226;2023-04-10T10:57:58;2.10;;;1.90;;
7939;SDS011;4015;48.888;9.226;2023-04-10T11:05:56;1.92;;;1.83;;
7939;SDS011;4015;48.888;9.226;2023-04-10T11:11:06;2.13;;;1.75;;
7939;SDS011;4015;48.888;9.226;2023-04-10T11:13:33;2.42;;;2.00;;
7939;SDS011;4015;48.888;9.226;2023-04-10T11:16:18;1.60;;;1.50;;
7939;SDS011;4015;48.888;9.226;2023-04-10T11:21:14;1.50;;;1.40;;
7939;SDS011;4015;48.888;9.226;2023-04-10T11:28:59;2.17;;;2.00;;
7939;SDS011;4015;48.888;9.226;2023-04-10T11:31:36;1.75;;;1.40;;
7939;SDS011;4015;48.888;9.226;2023-04-10T11:34:03;1.48;;;1.38;;
7939;SDS011;4015;48.888;9.226;2023-04-10T11:36:30;1.40;;;1.30;;
7939;SDS011;4015;48.888;9.226;2023-04-10T11:41:37;1.88;;;1.77;;
7939;SDS011;4015;48.888;9.226;2023-04-10T11:44:05;1.55;;;1.30;;
7939;SDS011;4015;48.888;9.226;2023-04-10T11:46:36;1.58;;;1.48;;
7939;SDS011;4015;48.888;9.226;2023-04-10T11:49:04;1.67;;;1.58;;
7939;SDS011;4015;48.888;9.226;2023-04-10T11:51:32;1.60;;;1.50;;
7939;SDS011;4015;48.888;9.226;2023-04-10T11:54:10;1.48;;;1.33;;
7939;SDS011;4015;48.888;9.226;2023-04-10T11:56:36;1.40;;;1.30;;
7939;SDS011;4015;48.888;9.226;2023-04-10T11:59:03;1.30;;;1.20;;
7939;SDS011;4015;48.888;9.226;2023-04-10T12:01:38;1.70;;;1.50;;
7939;SDS011;4015;48.888;9.226;2023-04-10T12:04:14;1.60;;;1.50;;
7939;SDS011;4015;48.888;9.226;2023-04-10T12:06:51;1.50;;;1.38;;
7939;SDS011;4015;48.888;9.226;2023-04-10T12:09:17;1.35;;;1.20;;
7939;SDS011;4015;48.888;9.226;2023-04-10T12:11:48;1.50;;;1.40;;
7939;SDS011;4015;48.888;9.226;2023-04-10T12:14:14;2.08;;;1.45;;
7939;SDS011;4015;48.888;9.226;2023-04-10T12:16:40;1.30;;;1.02;;
7939;SDS011;4015;48.888;9.226;2023-04-10T12:19:06;1.20;;;1.10;;
7939;SDS011;4015;48.888;9.226;2023-04-10T12:21:31;1.38;;;1.27;;
7939;SDS011;4015;48.888;9.226;2023-04-10T12:23:59;1.52;;;1.42;;
7939;SDS011;4015;48.888;9.226;2023-04-10T12:26:25;1.40;;;1.30;;
7939;SDS011;4015;48.888;9.226;2023-04-10T12:28:51;1.25;;;1.15;;
7939;SDS011;4015;48.888;9.226;2023-04-10T12:31:33;1.48;;;1.38;;
7939;SDS011;4015;48.888;9.226;2023-04-10T12:34:00;1.17;;;1.08;;
7939;SDS011;4015;48.888;9.226;2023-04-10T12:36:27;1.30;;;1.20;;
7939;SDS011;4015;48.888;9.226;2023-04-10T12:38:57;2.58;;;1.20;;
7939;SDS011;4015;48.888;9.226;2023-04-10T12:41:32;1.58;;;1.23;;
7939;SDS011;4015;48.888;9.226;2023-04-10T12:44:09;1.30;;;1.20;;
7939;SDS011;4015;48.888;9.226;2023-04-10T12:46:36;0.85;;;0.85;;
7939;SDS011;4015;48.888;9.226;2023-04-10T12:49:09;1.10;;;1.00;;
7939;SDS011;4015;48.888;9.226;2023-04-10T12:54:07;0.95;;;0.85;;
7939;SDS011;4015;48.888;9.226;2023-04-10T12:56:42;0.70;;;0.70;;
7939;SDS011;4015;48.888;9.226;2023-04-10T12:59:08;1.00;;;0.88;;
7939;SDS011;4015;48.888;9.226;2023-04-10T13:01:34;1.00;;;0.90;;
7939;SDS011;4015;48.888;9.226;2023-04-10T13:04:01;0.80;;;0.80;;
7939;SDS011;4015;48.888;9.226;2023-04-10T13:06:26;0.73;;;0.70;;
7939;SDS011;4015;48.888;9.226;2023-04-10T13:08:52;2.50;;;1.00;;
7939;SDS011;4015;48.888;9.226;2023-04-10T13:11:19;0.95;;;0.88;;
7939;SDS011;4015;48.888;9.226;2023-04-10T13:13:44;1.75;;;0.98;;
7939;SDS011;4015;48.888;9.226;2023-04-10T13:16:10;1.10;;;1.00;;
7939;SDS011;4015;48.888;9.226;2023-04-10T13:18:37;1.10;;;1.00;;
7939;SDS011;4015;48.888;9.226;2023-04-10T13:21:03;1.52;;;1.20;;
7939;SDS011;4015;48.888;9.226;2023-04-10T13:23:28;2.42;;;1.08;;
7939;SDS011;4015;48.888;9.226;2023-04-10T13:25:54;0.85;;;0.80;;
7939;SDS011;4015;48.888;9.226;2023-04-10T13:28:20;0.75;;;0.68;;
7939;SDS011;4015;48.888;9.226;2023-04-10T13:30:46;1.30;;;1.05;;
7939;SDS011;4015;48.888;9.226;2023-04-10T13:33:11;3.35;;;0.98;;
7939;SDS011;4015;48.888;9.226;2023-04-10T13:35:37;0.98;;;0.90;;
7939;SDS011;4015;48.888;9.226;2023-04-10T13:38:03;1.08;;;0.98;;
7939;SDS011;4015;48.888;9.226;2023-04-10T13:40:29;0.85;;;0.85;;
7939;SDS011;4015;48.888;9.226;2023-04-10T13:42:55;3.10;;;1.25;;
7939;SDS011;4015;48.888;9.226;2023-04-10T13:45:20;1.55;;;1.45;;
7939;SDS011;4015;48.888;9.226;2023-04-10T13:47:45;1.15;;;0.95;;
7939;SDS011;4015;48.888;9.226;2023-04-10T13:50:11;1.25;;;0.63;;
7939;SDS011;4015;48.888;9.226;2023-04-10T13:52:36;1.40;;;1.05;;
7939;SDS011;4015;48.888;9.226;2023-04-10T13:55:02;1.23;;;1.10;;
7939;SDS011;4015;48.888;9.226;2023-04-10T13:57:28;1.15;;;1.05;;
7939;SDS011;4015;48.888;9.226;2023-04-10T13:59:53;1.20;;;1.10;;
7939;SDS011;4015;48.888;9.226;2023-04-10T14:02:18;1.42;;;1.10;;
7939;SDS011;4015;48.888;9.226;2023-04-10T14:04:44;1.20;;;1.10;;
7939;SDS011;4015;48.888;9.226;2023-04-10T14:07:10;1.20;;;1.10;;
7939;SDS011;4015;48.888;9.226;2023-04-10T14:09:35;1.15;;;1.05;;
7939;SDS011;4015;48.888;9.226;2023-04-10T14:12:01;1.20;;;1.10;;
7939;SDS011;4015;48.888;9.226;2023-04-10T14:14:27;1.27;;;1.17;;
7939;SDS011;4015;48.888;9.226;2023-04-10T14:16:52;1.20;;;1.10;;
7939;SDS011;4015;48.888;9.226;2023-04-10T14:19:17;1.17;;;1.08;;
7939;SDS011;4015;48.888;9.226;2023-04-10T14:21:43;3.03;;;1.10;;
7939;SDS011;4015;48.888;9.226;2023-04-10T14:24:09;1.23;;;1.02;;
7939;SDS011;4015;48.888;9.226;2023-04-10T14:26:34;1.15;;;1.05;;
7939;SDS011;4015;48.888;9.226;2023-04-10T14:29:00;1.70;;;1.33;;
7939;SDS011;4015;48.888;9.226;2023-04-10T14:31:25;2.25;;;1.30;;
7939;SDS011;4015;48.888;9.226;2023-04-10T14:33:51;1.33;;;0.93;;
7939;SDS011;4015;48.888;9.226;2023-04-10T14:36:16;1.25;;;1.15;;
7939;SDS011;4015;48.888;9.226;2023-04-10T14:38:41;1.73;;;1.52;;
7939;SDS011;4015;48.888;9.226;2023-04-10T14:41:07;1.92;;;1.05;;
7939;SDS011;4015;48.888;9.226;2023-04-10T14:43:32;0.82;;;0.82;;
7939;SDS011;4015;48.888;9.226;2023-04-10T14:45:57;1.23;;;1.13;;
7939;SDS011;4015;48.888;9.226;2023-04-10T14:48:23;1.50;;;1.30;;
7939;SDS011;4015;48.888;9.226;2023-04-10T14:50:49;1.33;;;1.23;;
7939;SDS011;4015;48.888;9.226;2023-04-10T14:53:14;1.30;;;1.20;;
7939;SDS011;4015;48.888;9.226;2023-04-10T14:55:40;1.73;;;1.23;;
7939;SDS011;4015;48.888;9.226;2023-04-10T14:58:05;2.67;;;1.30;;
7939;SDS011;4015;48.888;9.226;2023-04-10T15:00:32;1.30;;;1.20;;
7939;SDS011;4015;48.888;9.226;2023-04-10T15:02:58;1.67;;;1.33;;
7939;SDS011;4015;48.888;9.226;2023-04-10T15:05:24;1.10;;;1.00;;
7939;SDS011;4015;48.888;9.226;2023-04-10T15:07:50;1.20;;;1.10;;
7939;SDS011;4015;48.888;9.226;2023-04-10T15:10:15;1.20;;;1.10;;
7939;SDS011;4015;48.888;9.226;2023-04-10T15:12:40;1.50;;;1.20;;
7939;SDS011;4015;48.888;9.226;2023-04-10T15:15:06;2.42;;;1.50;;
7939;SDS011;4015;48.888;9.226;2023-04-10T15:17:32;2.92;;;1.38;;
7939;SDS011;4015;48.888;9.226;2023-04-10T15:19:57;2.17;;;1.17;;
7939;SDS011;4015;48.888;9.226;2023-04-10T15:22:23;1.50;;;1.40;;
7939;SDS011;4015;48.888;9.226;2023-04-10T15:24:48;2.95;;;1.50;;
7939;SDS011;4015;48.888;9.226;2023-04-10T15:27:13;1.30;;;1.20;;
7939;SDS011;4015;48.888;9.226;2023-04-10T15:29:40;1.40;;;1.30;;
7939;SDS011;4015;48.888;9.226;2023-04-10T15:32:06;1.48;;;1.20;;
7939;SDS011;4015;48.888;9.226;2023-04-10T15:34:32;1.30;;;1.20;;
7939;SDS011;4015;48.888;9.226;2023-04-10T15:36:57;2.40;;;1.20;;
7939;SDS011;4015;48.888;9.226;2023-04-10T15:39:22;1.30;;;1.20;;
7939;SDS011;4015;48.888;9.226;2023-04-10T15:41:48;1.20;;;1.10;;
7939;SDS011;4015;48.888;9.226;2023-04-10T15:44:14;1.40;;;1.30;;
7939;SDS011;4015;48.888;9.226;2023-04-10T15:46:42;3.03;;;1.30;;